Time;durP1;ratioP1;P1;durP2;ratioP2;P2;SDS_P1;SDS_P2;PMS_P1;PMS_P2;Temp;Humidity;BMP_temperature;BMP_pressure;BME280_temperature;BME280_humidity;BME280_pressure;Samples;Min_cycle;Max_cycle;Signal;HPM_P1;HPM_P2
2022/02/24 00:00:25;;;;;;;20.07;5.63;;;6.40;99.90;;;;;;5088984;28;20246;-52
2022/02/24 00:02:52;;;;;;;20.40;5.37;;;6.40;99.90;;;;;;5088881;28;20317;-52
2022/02/24 00:05:21;;;;;;;16.63;4.90;;;6.30;99.90;;;;;;5088418;28;20196;-53
2022/02/24 00:07:49;;;;;;;22.63;6.10;;;6.30;99.90;;;;;;5088845;28;20230;-49
2022/02/24 00:10:17;;;;;;;17.17;5.37;;;6.30;99.90;;;;;;5087270;28;20268;-50
2022/02/24 00:12:44;;;;;;;14.03;4.67;;;6.30;99.90;;;;;;5086195;28;20558;-50
2022/02/24 00:15:12;;;;;;;20.43;5.83;;;6.30;99.90;;;;;;5085684;28;20247;-50
2022/02/24 00:17:40;;;;;;;11.00;4.40;;;6.30;99.90;;;;;;5085498;28;20202;-48
2022/02/24 00:20:09;;;;;;;15.30;4.43;;;6.30;99.90;;;;;;5078022;28;20570;-45
2022/02/24 00:22:37;;;;;;;19.13;5.37;;;6.20;99.90;;;;;;5086270;28;20195;-48
2022/02/24 00:25:06;;;;;;;23.10;5.23;;;6.20;99.90;;;;;;5083389;28;20188;-50
2022/02/24 00:27:33;;;;;;;16.60;4.90;;;6.20;99.90;;;;;;5080410;28;20203;-43
2022/02/24 00:30:02;;;;;;;13.23;4.40;;;6.90;99.90;;;;;;5083236;28;20719;-48
2022/02/24 00:32:30;;;;;;;18.03;5.27;;;6.20;99.90;;;;;;5084452;28;20197;-45
2022/02/24 00:34:57;;;;;;;11.97;4.17;;;6.20;99.90;;;;;;5081977;28;20195;-45
2022/02/24 00:37:24;;;;;;;11.97;4.03;;;6.20;99.90;;;;;;5083721;28;20197;-45
2022/02/24 00:39:55;;;;;;;15.33;4.80;;;6.20;99.90;;;;;;5080624;28;20218;-49
2022/02/24 00:42:22;;;;;;;11.63;4.20;;;6.10;99.90;;;;;;5084019;28;20282;-50
2022/02/24 00:44:49;;;;;;;9.50;3.97;;;6.10;99.90;;;;;;5078433;28;20608;-50
2022/02/24 00:47:16;;;;;;;15.27;3.33;;;6.10;99.90;;;;;;5079922;28;20196;-48
2022/02/24 00:49:43;;;;;;;13.53;4.20;;;6.10;99.90;;;;;;5086905;28;20215;-49
2022/02/24 00:52:10;;;;;;;9.50;3.50;;;6.10;99.90;;;;;;5086979;28;20275;-44
2022/02/24 00:54:37;;;;;;;8.70;3.50;;;6.10;99.90;;;;;;5087763;28;20287;-48
2022/02/24 00:57:06;;;;;;;7.63;3.13;;;6.10;99.90;;;;;;5087958;28;20196;-44
2022/02/24 00:59:33;;;;;;;7.37;2.60;;;6.20;99.90;;;;;;5085875;28;20212;-44
2022/02/24 01:02:00;;;;;;;9.40;3.20;;;6.10;99.90;;;;;;5085739;28;20672;-44
2022/02/24 01:04:27;;;;;;;5.97;2.50;;;6.10;99.90;;;;;;5062652;28;20312;-44
2022/02/24 01:06:54;;;;;;;10.20;3.63;;;6.20;99.90;;;;;;5063683;28;20210;-44
2022/02/24 01:09:22;;;;;;;8.97;2.73;;;6.20;99.90;;;;;;5062069;28;20215;-45
2022/02/24 01:11:49;;;;;;;8.90;3.20;;;6.20;99.90;;;;;;5062507;28;20681;-51
2022/02/24 01:14:18;;;;;;;8.40;3.03;;;6.20;99.90;;;;;;5061907;28;20202;-45
2022/02/24 01:16:45;;;;;;;6.17;2.87;;;6.20;99.90;;;;;;5061018;28;20197;-46
2022/02/24 01:19:12;;;;;;;9.27;3.40;;;6.20;99.90;;;;;;5052140;28;21088;-44
2022/02/24 01:21:39;;;;;;;12.20;3.53;;;6.20;99.90;;;;;;5050121;28;20255;-49
2022/02/24 01:24:06;;;;;;;6.10;2.77;;;6.20;99.90;;;;;;5049599;28;20202;-45
2022/02/24 01:26:33;;;;;;;11.43;3.53;;;6.20;99.90;;;;;;5050443;28;20197;-47
2022/02/24 01:29:01;;;;;;;11.70;3.40;;;6.30;99.90;;;;;;5051068;28;20536;-46
2022/02/24 01:31:29;;;;;;;16.07;4.37;;;6.30;99.90;;;;;;5048497;28;20192;-45
2022/02/24 01:33:56;;;;;;;20.40;5.17;;;6.30;99.90;;;;;;5058367;28;20579;-49
2022/02/24 01:36:24;;;;;;;15.27;4.37;;;6.30;99.90;;;;;;5061319;28;20235;-46
2022/02/24 01:38:51;;;;;;;17.37;4.83;;;6.30;99.90;;;;;;5057879;28;20224;-47
2022/02/24 01:41:18;;;;;;;12.63;4.00;;;6.20;99.90;;;;;;5056750;28;20197;-44
2022/02/24 01:43:46;;;;;;;15.13;4.37;;;6.30;99.90;;;;;;5054135;28;20199;-46
2022/02/24 01:46:13;;;;;;;14.13;4.87;;;6.20;99.90;;;;;;5059410;28;20683;-46
2022/02/24 01:48:42;;;;;;;13.43;4.33;;;6.20;99.90;;;;;;5064277;28;20197;-48
2022/02/24 01:51:10;;;;;;;12.63;4.07;;;6.20;99.90;;;;;;5065635;28;20197;-51
2022/02/24 01:53:37;;;;;;;9.47;3.80;;;6.30;99.90;;;;;;5069953;28;20197;-51
2022/02/24 01:56:05;;;;;;;11.57;3.80;;;6.30;99.90;;;;;;5067387;28;20652;-49
2022/02/24 01:58:33;;;;;;;18.70;4.90;;;6.30;99.90;;;;;;5070208;28;20313;-48
2022/02/24 02:01:00;;;;;;;13.03;4.17;;;6.30;99.90;;;;;;5064964;28;20224;-50
2022/02/24 02:03:27;;;;;;;13.30;4.60;;;6.30;99.90;;;;;;5079616;28;20234;-51
2022/02/24 02:05:56;;;;;;;15.20;4.17;;;6.30;99.90;;;;;;5086460;28;20785;-48
2022/02/24 02:08:24;;;;;;;19.13;4.60;;;6.30;99.90;;;;;;5086209;28;20592;-48
2022/02/24 02:10:51;;;;;;;16.07;4.60;;;6.30;99.90;;;;;;5070912;28;20210;-49
2022/02/24 02:13:18;;;;;;;20.63;5.00;;;6.30;99.90;;;;;;5086578;28;20669;-52
2022/02/24 02:15:46;;;;;;;36.20;7.80;;;6.30;99.90;;;;;;5064672;28;20604;-53
2022/02/24 02:18:13;;;;;;;23.13;5.57;;;6.30;99.90;;;;;;5079433;28;20192;-51
2022/02/24 02:20:42;;;;;;;16.20;4.83;;;6.30;99.90;;;;;;5082051;28;20210;-51
2022/02/24 02:23:09;;;;;;;13.97;4.33;;;6.30;99.90;;;;;;5061010;28;20207;-50
2022/02/24 02:25:36;;;;;;;9.33;3.60;;;6.30;99.90;;;;;;5085109;28;20208;-53
2022/02/24 02:28:04;;;;;;;12.27;3.70;;;6.20;99.90;;;;;;5065009;28;20204;-50
2022/02/24 02:30:31;;;;;;;13.77;3.80;;;6.20;99.90;;;;;;5080512;28;20218;-52
2022/02/24 02:32:59;;;;;;;17.57;4.70;;;6.20;99.90;;;;;;5080111;28;21173;-50
2022/02/24 02:35:27;;;;;;;18.00;4.47;;;6.20;99.90;;;;;;5088783;28;20242;-50
2022/02/24 02:37:57;;;;;;;15.60;4.97;;;6.10;99.90;;;;;;5062983;28;20205;-52
2022/02/24 02:40:25;;;;;;;11.60;4.27;;;6.10;99.90;;;;;;5083881;28;20285;-52
2022/02/24 02:42:52;;;;;;;14.53;3.80;;;6.10;99.90;;;;;;5078997;28;20199;-52
2022/02/24 02:45:19;;;;;;;13.63;3.80;;;6.10;99.90;;;;;;5065807;28;20217;-49
2022/02/24 02:47:47;;;;;;;10.70;3.77;;;5.90;99.90;;;;;;5068515;28;20194;-52
2022/02/24 02:50:15;;;;;;;9.73;3.83;;;6.00;99.90;;;;;;5087867;28;20601;-48
2022/02/24 02:52:42;;;;;;;14.57;4.63;;;5.90;99.90;;;;;;5086059;28;20213;-51
2022/02/24 02:55:12;;;;;;;15.60;5.00;;;5.90;99.90;;;;;;5088375;28;20194;-47
2022/02/24 02:57:40;;;;;;;12.23;3.67;;;5.90;99.90;;;;;;5086953;28;20670;-51
2022/02/24 03:00:09;;;;;;;14.30;4.73;;;5.90;99.90;;;;;;5087983;28;20298;-48
2022/02/24 03:02:36;;;;;;;18.50;6.13;;;5.90;99.90;;;;;;5087261;28;20225;-51
2022/02/24 03:05:05;;;;;;;14.43;5.53;;;5.90;99.90;;;;;;5085465;28;20578;-48
2022/02/24 03:07:33;;;;;;;13.80;5.23;;;5.90;99.90;;;;;;5086456;28;20234;-46
2022/02/24 03:10:00;;;;;;;21.73;6.13;;;5.80;99.90;;;;;;5086534;28;20765;-51
2022/02/24 03:12:28;;;;;;;15.13;5.80;;;5.80;99.90;;;;;;5085344;28;20204;-48
2022/02/24 03:14:55;;;;;;;20.23;5.80;;;5.80;99.90;;;;;;5087177;28;20185;-50
2022/02/24 03:17:23;;;;;;;23.97;7.10;;;5.70;99.90;;;;;;5084900;28;20210;-50
2022/02/24 03:19:50;;;;;;;15.33;6.70;;;5.60;99.90;;;;;;5081358;28;20231;-50
2022/02/24 03:22:17;;;;;;;22.93;6.73;;;5.60;99.90;;;;;;5061305;28;20209;-51
2022/02/24 03:24:44;;;;;;;18.03;6.47;;;5.50;99.90;;;;;;5089369;28;20208;-50
2022/02/24 03:27:11;;;;;;;14.83;6.23;;;5.50;99.90;;;;;;5087305;28;20224;-47
2022/02/24 03:29:40;;;;;;;19.27;6.23;;;5.40;99.90;;;;;;5066585;28;20201;-48
2022/02/24 03:32:08;;;;;;;19.33;6.20;;;5.40;99.90;;;;;;5076431;28;20189;-45
2022/02/24 03:34:35;;;;;;;15.53;5.50;;;5.40;99.90;;;;;;5086329;28;20583;-47
2022/02/24 03:37:03;;;;;;;18.60;6.27;;;5.40;99.90;;;;;;5087069;28;20311;-49
2022/02/24 03:39:30;;;;;;;15.80;5.63;;;5.40;99.90;;;;;;5087143;28;20225;-47
2022/02/24 03:41:57;;;;;;;11.63;4.97;;;5.40;99.90;;;;;;5084720;28;20512;-44
2022/02/24 03:44:24;;;;;;;13.50;4.90;;;5.40;99.90;;;;;;5083269;28;20198;-52
2022/02/24 03:46:53;;;;;;;8.77;3.80;;;5.40;99.90;;;;;;5083666;28;20205;-51
2022/02/24 03:49:20;;;;;;;13.37;4.37;;;5.30;99.90;;;;;;5082589;28;20201;-50
2022/02/24 03:51:47;;;;;;;10.83;4.40;;;5.30;99.90;;;;;;5086766;28;20247;-52
2022/02/24 03:54:14;;;;;;;17.20;5.13;;;5.30;99.90;;;;;;5087196;28;20202;-51
2022/02/24 03:56:41;;;;;;;16.10;5.07;;;5.30;99.90;;;;;;5072806;28;20205;-51
2022/02/24 03:59:08;;;;;;;13.53;4.83;;;5.30;99.90;;;;;;5089793;28;20564;-52
2022/02/24 04:01:36;;;;;;;9.27;3.90;;;5.30;99.90;;;;;;5072591;28;20233;-47
2022/02/24 04:04:04;;;;;;;20.33;4.50;;;5.30;99.90;;;;;;5071418;28;20350;-49
2022/02/24 04:06:31;;;;;;;13.40;4.53;;;5.30;99.90;;;;;;5081249;28;20197;-52
2022/02/24 04:08:58;;;;;;;8.80;3.73;;;5.30;99.90;;;;;;5086232;28;20202;-48
2022/02/24 04:11:25;;;;;;;10.60;4.10;;;5.30;99.90;;;;;;5069499;28;20554;-52
2022/02/24 04:13:53;;;;;;;11.60;3.53;;;5.30;99.90;;;;;;5084680;28;20929;-50
2022/02/24 04:16:20;;;;;;;8.90;3.43;;;5.30;99.90;;;;;;5092015;28;20927;-50
2022/02/24 04:18:47;;;;;;;9.90;4.13;;;5.30;99.90;;;;;;5057969;28;20198;-52
2022/02/24 04:21:15;;;;;;;7.73;2.83;;;5.30;99.90;;;;;;5091152;28;20216;-52
2022/02/24 04:23:42;;;;;;;9.90;4.00;;;5.30;99.90;;;;;;5081885;28;20562;-51
2022/02/24 04:26:09;;;;;;;13.53;4.00;;;5.30;99.90;;;;;;5087062;28;20548;-51
2022/02/24 04:28:37;;;;;;;11.30;3.90;;;5.30;99.90;;;;;;5067527;28;20298;-52
2022/02/24 04:31:04;;;;;;;17.70;4.57;;;5.30;99.90;;;;;;5081548;28;20201;-51
2022/02/24 04:33:31;;;;;;;10.23;4.13;;;5.40;99.90;;;;;;5082260;28;20660;-47
2022/02/24 04:35:58;;;;;;;11.70;4.20;;;5.40;99.90;;;;;;5088706;28;20203;-49
2022/02/24 04:38:26;;;;;;;18.40;4.07;;;5.30;99.90;;;;;;5063685;28;20202;-50
2022/02/24 04:40:53;;;;;;;10.23;3.83;;;5.30;99.90;;;;;;5084608;28;20751;-50
2022/02/24 04:43:21;;;;;;;8.23;3.67;;;5.30;99.90;;;;;;5090094;28;20569;-50
2022/02/24 04:45:48;;;;;;;14.73;4.10;;;5.30;99.90;;;;;;5072706;28;20624;-48
2022/02/24 04:48:15;;;;;;;11.87;4.83;;;5.30;99.90;;;;;;5089335;28;20285;-51
2022/02/24 04:50:42;;;;;;;11.13;4.30;;;5.30;99.90;;;;;;5088960;28;20267;-51
2022/02/24 04:53:09;;;;;;;9.30;4.43;;;5.30;99.90;;;;;;5089545;28;20197;-44
2022/02/24 04:55:38;;;;;;;9.20;3.93;;;5.40;99.90;;;;;;5078710;28;20665;-48
2022/02/24 04:58:05;;;;;;;10.60;4.30;;;5.30;99.90;;;;;;5089447;28;20197;-43
2022/02/24 05:00:32;;;;;;;8.83;4.33;;;5.30;99.90;;;;;;5069321;28;20340;-43
2022/02/24 05:02:59;;;;;;;12.60;3.97;;;5.20;99.90;;;;;;5071226;28;20342;-43
2022/02/24 05:05:27;;;;;;;10.50;3.80;;;5.20;99.90;;;;;;5086858;28;20221;-44
2022/02/24 05:07:54;;;;;;;13.10;4.50;;;5.20;99.90;;;;;;5090506;28;20192;-45
2022/02/24 05:10:21;;;;;;;10.53;4.13;;;5.20;99.90;;;;;;5089106;28;20726;-44
2022/02/24 05:12:50;;;;;;;10.10;4.23;;;5.30;99.90;;;;;;5070749;28;20212;-48
2022/02/24 05:15:17;;;;;;;13.83;4.97;;;5.30;99.90;;;;;;5070295;28;20209;-50
2022/02/24 05:17:44;;;;;;;13.07;4.47;;;5.20;99.90;;;;;;5086945;28;20274;-48
2022/02/24 05:20:14;;;;;;;11.37;4.43;;;5.20;99.90;;;;;;5084520;28;20210;-51
2022/02/24 05:22:43;;;;;;;11.77;5.20;;;5.20;99.90;;;;;;5089387;28;20185;-48
2022/02/24 05:25:12;;;;;;;15.77;5.07;;;5.20;99.90;;;;;;5088910;28;20724;-53
2022/02/24 05:27:42;;;;;;;13.77;4.80;;;5.20;99.90;;;;;;5090301;28;20192;-48
2022/02/24 05:30:12;;;;;;;16.13;5.87;;;5.10;99.90;;;;;;5088468;28;20265;-52
2022/02/24 05:32:39;;;;;;;12.23;4.93;;;5.10;99.90;;;;;;5084035;28;20189;-49
2022/02/24 05:35:08;;;;;;;13.67;4.97;;;5.10;99.90;;;;;;5066620;28;20206;-53
2022/02/24 05:37:35;;;;;;;10.13;3.57;;;5.10;99.90;;;;;;5082929;28;20200;-52
2022/02/24 05:40:04;;;;;;;12.83;4.47;;;5.10;99.90;;;;;;5089244;28;20295;-52
2022/02/24 05:42:31;;;;;;;19.23;5.20;;;5.10;99.90;;;;;;5090221;28;20199;-50
2022/02/24 05:44:58;;;;;;;13.77;4.70;;;5.10;99.90;;;;;;5087742;28;20197;-47
2022/02/24 05:47:27;;;;;;;14.80;5.23;;;5.10;99.90;;;;;;5084489;28;20222;-52
2022/02/24 05:49:54;;;;;;;16.37;4.87;;;5.10;99.90;;;;;;5088312;28;20203;-45
2022/02/24 05:52:21;;;;;;;17.47;5.17;;;5.10;99.90;;;;;;5069546;28;20258;-52
2022/02/24 05:54:48;;;;;;;16.43;5.83;;;5.10;99.90;;;;;;5068253;28;20206;-49
2022/02/24 05:57:15;;;;;;;20.13;5.80;;;5.00;99.90;;;;;;5087424;28;20708;-46
2022/02/24 05:59:42;;;;;;;18.90;5.80;;;5.00;99.90;;;;;;5089085;28;20222;-50
2022/02/24 06:02:10;;;;;;;17.83;6.70;;;4.90;99.90;;;;;;5083894;28;20231;-52
2022/02/24 06:04:38;;;;;;;14.73;5.73;;;4.90;99.90;;;;;;5085535;28;20196;-49
2022/02/24 06:07:05;;;;;;;18.33;6.13;;;4.90;99.90;;;;;;5083023;28;20606;-52
2022/02/24 06:09:32;;;;;;;15.50;6.30;;;4.90;99.90;;;;;;5089005;28;20197;-50
2022/02/24 06:11:59;;;;;;;18.43;6.23;;;4.90;99.90;;;;;;5084368;28;20199;-51
2022/02/24 06:14:27;;;;;;;15.33;6.07;;;4.90;99.90;;;;;;5084493;28;20189;-51
2022/02/24 06:16:54;;;;;;;17.67;5.70;;;4.90;99.90;;;;;;5081908;28;20265;-51
2022/02/24 06:19:21;;;;;;;23.50;6.43;;;4.90;99.90;;;;;;5057461;28;20219;-52
2022/02/24 06:21:52;;;;;;;16.53;5.77;;;4.90;99.90;;;;;;5080375;28;20220;-51
2022/02/24 06:24:19;;;;;;;18.53;6.63;;;4.90;99.90;;;;;;5082582;28;20196;-51
2022/02/24 06:26:46;;;;;;;25.23;7.83;;;4.90;99.90;;;;;;5077531;28;20201;-47
2022/02/24 06:29:13;;;;;;;26.30;7.80;;;5.00;99.90;;;;;;5080021;28;20450;-48
2022/02/24 06:31:40;;;;;;;27.03;8.27;;;5.00;99.90;;;;;;5082554;28;20330;-50
2022/02/24 06:34:07;;;;;;;25.37;7.97;;;5.00;99.90;;;;;;5078394;28;20200;-49
2022/02/24 06:36:34;;;;;;;16.83;6.97;;;5.00;99.90;;;;;;5075398;28;20341;-52
2022/02/24 06:39:03;;;;;;;21.27;8.40;;;5.00;99.90;;;;;;5077217;28;20201;-52
2022/02/24 06:41:31;;;;;;;27.10;8.47;;;5.00;99.90;;;;;;5085796;28;20220;-52
2022/02/24 06:43:58;;;;;;;26.27;8.57;;;5.10;99.90;;;;;;5087734;28;20205;-51
2022/02/24 06:46:25;;;;;;;24.93;7.93;;;5.10;99.90;;;;;;5067017;28;20212;-51
2022/02/24 06:48:52;;;;;;;17.63;7.73;;;5.20;99.90;;;;;;5068276;28;20208;-51
2022/02/24 06:51:19;;;;;;;23.93;8.27;;;5.20;99.90;;;;;;5086230;28;20198;-50
2022/02/24 06:53:46;;;;;;;25.93;8.67;;;5.20;99.90;;;;;;5087904;28;20201;-49
2022/02/24 06:56:14;;;;;;;20.10;6.60;;;5.30;99.90;;;;;;5068251;28;20730;-49
2022/02/24 06:58:42;;;;;;;16.03;6.13;;;5.30;99.90;;;;;;5087202;28;20219;-46
2022/02/24 07:01:09;;;;;;;23.13;6.63;;;5.40;99.90;;;;;;5087192;28;20212;-52
2022/02/24 07:03:36;;;;;;;13.70;5.37;;;5.40;99.90;;;;;;5084112;28;20229;-51
2022/02/24 07:06:03;;;;;;;13.13;5.23;;;5.50;99.90;;;;;;5064605;28;20200;-51
2022/02/24 07:08:31;;;;;;;17.63;5.50;;;5.60;99.90;;;;;;5068705;28;20201;-52
2022/02/24 07:10:58;;;;;;;13.87;5.60;;;5.60;99.90;;;;;;5087214;28;20191;-52
2022/02/24 07:13:26;;;;;;;12.00;4.87;;;5.70;99.90;;;;;;5086586;28;20668;-52
2022/02/24 07:15:53;;;;;;;8.87;4.57;;;5.70;99.90;;;;;;5087400;28;20197;-52
2022/02/24 07:18:21;;;;;;;14.87;5.50;;;5.80;99.90;;;;;;5075796;28;20190;-46
2022/02/24 07:20:48;;;;;;;14.23;5.70;;;5.90;99.90;;;;;;5078494;28;20744;-52
2022/02/24 07:23:15;;;;;;;15.33;5.97;;;6.00;99.90;;;;;;5085402;28;20205;-50
2022/02/24 07:25:43;;;;;;;16.67;5.47;;;6.10;99.90;;;;;;5075685;28;20211;-52
2022/02/24 07:28:10;;;;;;;10.03;4.70;;;6.10;99.90;;;;;;5081264;28;20233;-50
2022/02/24 07:30:39;;;;;;;12.90;5.00;;;6.20;99.90;;;;;;5083684;28;20687;-52
2022/02/24 07:33:06;;;;;;;15.93;5.40;;;6.20;99.90;;;;;;5081422;28;20825;-54
2022/02/24 07:35:33;;;;;;;17.23;4.90;;;6.30;99.90;;;;;;5083118;28;20252;-51
2022/02/24 07:38:00;;;;;;;16.23;5.30;;;6.30;99.90;;;;;;5082296;28;20714;-49
2022/02/24 07:40:28;;;;;;;18.70;6.73;;;6.40;99.90;;;;;;5088799;28;20476;-52
2022/02/24 07:42:55;;;;;;;16.60;5.67;;;6.50;99.90;;;;;;5089500;28;20716;-50
2022/02/24 07:45:22;;;;;;;17.77;5.90;;;6.60;99.90;;;;;;5081550;28;20227;-48
2022/02/24 07:47:51;;;;;;;22.33;6.63;;;6.70;99.90;;;;;;5089288;28;20282;-49
2022/02/24 07:50:18;;;;;;;23.40;6.50;;;6.80;99.90;;;;;;5086369;28;20195;-47
2022/02/24 07:52:46;;;;;;;19.03;6.60;;;6.90;99.90;;;;;;5088549;28;20207;-47
2022/02/24 07:55:15;;;;;;;16.50;6.60;;;7.20;99.90;;;;;;5089464;28;20216;-51
2022/02/24 07:57:44;;;;;;;12.73;5.60;;;7.70;99.90;;;;;;5089152;28;20699;-49
2022/02/24 08:00:13;;;;;;;13.60;5.27;;;8.00;99.90;;;;;;5088720;28;20560;-47
2022/02/24 08:02:41;;;;;;;10.57;4.30;;;8.40;99.90;;;;;;5086671;28;20315;-47
2022/02/24 08:05:10;;;;;;;19.90;5.57;;;8.90;99.90;;;;;;5078749;28;20278;-50
2022/02/24 08:07:37;;;;;;;19.03;6.60;;;9.60;99.90;;;;;;5086014;28;20557;-47
2022/02/24 08:10:06;;;;;;;11.93;5.37;;;10.20;97.80;;;;;;5086818;28;20735;-52
2022/02/24 08:12:43;;;;;;;14.90;6.00;;;10.90;96.80;;;;;;5066743;28;20205;-47
2022/02/24 08:15:12;;;;;;;12.97;5.17;;;11.20;95.80;;;;;;5081322;28;20272;-51
2022/02/24 08:17:40;;;;;;;22.00;6.70;;;11.50;95.20;;;;;;5083192;28;21087;-47
2022/02/24 08:20:10;;;;;;;13.83;5.63;;;12.00;94.00;;;;;;5080844;28;20190;-51
2022/02/24 08:22:39;;;;;;;11.27;4.87;;;12.40;92.60;;;;;;5069966;28;20204;-47
2022/02/24 08:25:09;;;;;;;13.77;5.50;;;12.70;91.90;;;;;;5089525;28;20222;-47
2022/02/24 08:27:37;;;;;;;15.00;5.03;;;13.00;90.80;;;;;;5082805;28;20208;-47
2022/02/24 08:30:06;;;;;;;15.47;5.40;;;13.20;89.40;;;;;;5083000;28;20282;-47
2022/02/24 08:32:33;;;;;;;10.87;4.73;;;13.20;87.80;;;;;;5072075;28;20219;-50
2022/02/24 08:35:01;;;;;;;11.23;4.43;;;13.00;87.40;;;;;;5089943;28;20247;-46
2022/02/24 08:37:30;;;;;;;10.97;4.30;;;13.00;85.30;;;;;;5067924;28;20594;-45
2022/02/24 08:39:57;;;;;;;12.87;4.67;;;13.00;85.40;;;;;;5067506;28;20201;-47
2022/02/24 08:42:25;;;;;;;12.27;4.43;;;12.80;83.80;;;;;;5089704;28;20208;-48
2022/02/24 08:44:52;;;;;;;7.87;3.90;;;12.60;83.80;;;;;;5089838;28;20252;-48
2022/02/24 08:47:20;;;;;;;13.60;4.67;;;12.40;83.80;;;;;;5083091;28;20207;-51
2022/02/24 08:49:47;;;;;;;9.20;3.90;;;12.10;83.60;;;;;;5072571;28;20210;-48
2022/02/24 08:52:15;;;;;;;7.90;3.67;;;12.00;84.40;;;;;;5085438;28;20206;-49
2022/02/24 08:54:43;;;;;;;12.53;4.43;;;12.10;84.40;;;;;;5087196;28;20585;-50
2022/02/24 08:57:10;;;;;;;10.73;4.27;;;12.20;82.80;;;;;;5086317;28;20242;-49
2022/02/24 08:59:38;;;;;;;13.53;4.47;;;12.40;82.70;;;;;;5087393;28;20691;-49
2022/02/24 09:02:06;;;;;;;9.37;4.20;;;12.50;80.70;;;;;;5084079;28;20513;-46
2022/02/24 09:04:33;;;;;;;13.40;4.23;;;12.50;80.10;;;;;;5083751;28;20197;-53
2022/02/24 09:07:00;;;;;;;12.20;4.40;;;12.30;80.00;;;;;;5086100;28;20559;-47
2022/02/24 09:09:27;;;;;;;12.57;3.83;;;12.00;80.70;;;;;;5082989;28;20689;-47
2022/02/24 09:11:56;;;;;;;9.83;4.40;;;11.80;80.30;;;;;;5083067;28;20283;-50
2022/02/24 09:14:23;;;;;;;12.07;4.30;;;11.70;81.00;;;;;;5083159;28;20198;-47
2022/02/24 09:16:50;;;;;;;13.20;4.07;;;11.60;81.20;;;;;;5080013;28;20189;-50
2022/02/24 09:19:17;;;;;;;10.90;4.23;;;11.50;81.60;;;;;;5067306;28;20234;-49
2022/02/24 09:21:44;;;;;;;10.93;4.30;;;11.50;82.20;;;;;;5069530;28;20220;-52
2022/02/24 09:24:11;;;;;;;10.07;3.80;;;11.60;81.30;;;;;;5087979;28;20205;-51
2022/02/24 09:26:38;;;;;;;10.10;3.80;;;11.60;81.70;;;;;;5088108;28;20196;-48
2022/02/24 09:29:08;;;;;;;9.57;4.03;;;11.60;82.00;;;;;;5081627;28;20208;-53
2022/02/24 09:31:35;;;;;;;6.03;3.37;;;11.60;81.80;;;;;;5082169;28;20182;-49
2022/02/24 09:34:02;;;;;;;8.43;3.73;;;11.70;81.90;;;;;;5061097;28;20230;-53
2022/02/24 09:36:29;;;;;;;8.80;3.70;;;11.80;81.70;;;;;;5073152;28;20189;-54
2022/02/24 09:38:57;;;;;;;9.67;4.00;;;11.80;81.60;;;;;;5082401;28;20667;-54
2022/02/24 09:41:25;;;;;;;6.73;3.67;;;11.80;81.20;;;;;;5073896;28;20215;-51
2022/02/24 09:43:53;;;;;;;13.03;4.50;;;11.70;81.80;;;;;;5080922;28;20723;-52
2022/02/24 09:46:22;;;;;;;10.07;3.97;;;11.80;81.40;;;;;;5065551;28;20216;-55
2022/02/24 09:48:49;;;;;;;4.93;3.37;;;11.90;81.80;;;;;;5079729;28;20193;-53
2022/02/24 09:51:19;;;;;;;9.23;3.63;;;12.30;81.70;;;;;;5080929;28;20192;-52
2022/02/24 09:53:48;;;;;;;9.37;3.47;;;12.80;81.20;;;;;;5084209;28;20194;-50
2022/02/24 09:56:17;;;;;;;10.77;3.43;;;13.40;79.00;;;;;;5086491;28;20230;-52
2022/02/24 09:58:45;;;;;;;9.37;3.60;;;14.20;77.10;;;;;;5084017;28;20218;-51
2022/02/24 10:01:14;;;;;;;5.33;3.37;;;14.40;75.20;;;;;;5078053;28;20232;-52
2022/02/24 10:03:46;;;;;;;8.83;3.37;;;15.10;74.10;;;;;;5079401;28;20287;-50
2022/02/24 10:06:14;;;;;;;8.37;3.47;;;15.30;70.90;;;;;;5084896;28;20660;-52
2022/02/24 10:08:43;;;;;;;5.33;2.67;;;15.20;67.90;;;;;;5077958;28;20188;-49
2022/02/24 10:11:19;;;;;;;6.73;2.80;;;14.90;67.90;;;;;;5082102;28;20285;-49
2022/02/24 10:14:01;;;;;;;4.77;2.50;;;14.70;67.70;;;;;;5082335;28;20214;-48
2022/02/24 10:16:29;;;;;;;5.37;2.80;;;14.50;67.60;;;;;;5080008;28;20686;-47
2022/02/24 10:18:57;;;;;;;6.87;3.40;;;14.30;68.40;;;;;;5084624;28;20194;-51
2022/02/24 10:21:26;;;;;;;5.37;3.10;;;14.10;69.00;;;;;;5082025;28;20230;-50
2022/02/24 10:23:53;;;;;;;7.90;2.83;;;14.20;70.00;;;;;;5081939;28;20660;-50
2022/02/24 10:26:21;;;;;;;5.73;2.60;;;14.50;68.60;;;;;;5081671;28;20202;-52
2022/02/24 10:28:50;;;;;;;8.13;2.70;;;15.10;68.90;;;;;;5083749;28;20204;-51
2022/02/24 10:31:19;;;;;;;5.37;2.67;;;15.70;67.30;;;;;;5077500;28;20702;-48
2022/02/24 10:33:48;;;;;;;5.73;2.40;;;16.50;65.50;;;;;;5080031;28;20189;-47
2022/02/24 10:36:21;;;;;;;5.47;2.37;;;17.20;63.50;;;;;;5086227;28;20714;-51
2022/02/24 10:39:04;;;;;;;3.33;1.90;;;17.20;58.70;;;;;;5088777;28;20297;-48
2022/02/24 10:41:33;;;;;;;6.27;2.53;;;17.00;59.70;;;;;;5068463;28;20311;-47
2022/02/24 10:44:18;;;;;;;4.53;2.07;;;16.80;59.60;;;;;;5087865;28;20284;-46
2022/02/24 10:46:46;;;;;;;4.63;2.47;;;16.80;59.40;;;;;;5086514;28;20660;-49
2022/02/24 10:49:28;;;;;;;6.93;2.73;;;17.00;59.00;;;;;;5066922;28;20207;-48
2022/02/24 10:52:13;;;;;;;4.33;2.37;;;16.60;56.90;;;;;;5084921;28;20706;-48
2022/02/24 10:54:42;;;;;;;5.30;2.43;;;16.30;57.10;;;;;;5068091;28;20201;-51
2022/02/24 10:57:17;;;;;;;9.43;2.80;;;16.40;57.80;;;;;;5084637;28;20279;-51
2022/02/24 10:59:44;;;;;;;4.00;2.20;;;16.50;56.30;;;;;;5084849;28;20277;-49
2022/02/24 11:02:12;;;;;;;5.83;2.67;;;16.60;56.30;;;;;;5065820;28;20712;-53
2022/02/24 11:04:40;;;;;;;3.63;2.10;;;16.60;56.00;;;;;;5082010;28;20197;-49
2022/02/24 11:07:08;;;;;;;4.83;1.93;;;16.40;55.80;;;;;;5067527;28;20253;-50
2022/02/24 11:09:39;;;;;;;6.03;2.33;;;16.20;56.10;;;;;;5087728;28;20624;-52
2022/02/24 11:12:09;;;;;;;5.40;2.63;;;16.00;55.90;;;;;;5084886;28;20267;-50
2022/02/24 11:14:39;;;;;;;5.00;2.40;;;15.70;56.00;;;;;;5085913;28;20273;-45
2022/02/24 11:17:09;;;;;;;8.50;2.60;;;15.40;56.10;;;;;;5086234;28;20721;-46
2022/02/24 11:19:38;;;;;;;9.87;2.57;;;15.10;56.10;;;;;;5080266;28;20564;-44
2022/02/24 11:22:06;;;;;;;6.83;2.63;;;14.80;56.50;;;;;;5085258;28;20618;-45
2022/02/24 11:24:33;;;;;;;7.17;2.33;;;14.70;56.80;;;;;;5087275;28;20199;-46
2022/02/24 11:27:10;;;;;;;3.33;1.90;;;14.70;57.80;;;;;;5087126;28;20192;-46
2022/02/24 11:29:49;;;;;;;6.03;2.70;;;14.70;57.10;;;;;;5082067;28;20199;-46
2022/02/24 11:32:22;;;;;;;9.30;2.60;;;14.80;57.10;;;;;;5080086;28;20189;-50
2022/02/24 11:35:07;;;;;;;7.93;1.90;;;14.80;56.60;;;;;;5085897;28;20233;-47
2022/02/24 11:37:36;;;;;;;7.40;2.60;;;14.70;56.40;;;;;;5075560;28;20194;-46
2022/02/24 11:40:07;;;;;;;5.77;2.23;;;14.60;56.30;;;;;;5080755;28;20203;-53
2022/02/24 11:42:37;;;;;;;3.93;2.20;;;14.60;56.60;;;;;;5076360;28;20210;-53
2022/02/24 11:45:31;;;;;;;4.23;2.60;;;14.60;56.60;;;;;;5069047;28;20217;-49
2022/02/24 11:47:59;;;;;;;7.70;3.03;;;14.50;56.80;;;;;;5076754;28;20199;-51
2022/02/24 11:50:35;;;;;;;6.77;3.07;;;14.30;57.40;;;;;;5084851;28;20195;-47
2022/02/24 11:53:05;;;;;;;10.47;2.93;;;14.20;58.30;;;;;;5086631;28;20209;-49
2022/02/24 11:55:55;;;;;;;14.73;3.30;;;13.90;58.90;;;;;;5085430;28;20194;-49
2022/02/24 11:58:49;;;;;;;9.17;3.37;;;13.70;59.10;;;;;;5082465;28;20282;-51
2022/02/24 12:01:39;;;;;;;5.00;2.80;;;13.50;59.40;;;;;;5086611;28;20203;-50
2022/02/24 12:04:18;;;;;;;7.17;2.70;;;13.40;59.80;;;;;;5081514;28;20671;-52
2022/02/24 12:06:53;;;;;;;5.83;2.87;;;13.20;59.90;;;;;;5087668;28;20185;-50
2022/02/24 12:09:23;;;;;;;7.97;3.60;;;13.10;60.30;;;;;;5087767;28;20266;-51
2022/02/24 12:11:52;;;;;;;4.90;2.60;;;13.00;61.10;;;;;;5086751;28;20198;-52
2022/02/24 12:14:46;;;;;;;9.33;3.33;;;12.90;61.60;;;;;;5085739;28;20209;-49
2022/02/24 12:17:15;;;;;;;8.57;3.47;;;12.70;61.30;;;;;;5089474;28;20201;-52
2022/02/24 12:19:48;;;;;;;6.13;2.77;;;12.60;61.60;;;;;;5083525;28;20220;-51
2022/02/24 12:22:30;;;;;;;8.50;3.20;;;12.50;61.80;;;;;;5083957;28;20295;-53
2022/02/24 12:25:13;;;;;;;10.17;3.13;;;12.40;62.00;;;;;;5080526;28;20913;-51
2022/02/24 12:27:42;;;;;;;6.17;2.50;;;12.20;62.00;;;;;;5091451;28;20228;-53
2022/02/24 12:30:30;;;;;;;7.00;2.80;;;12.20;62.50;;;;;;5090480;28;20282;-51
2022/02/24 12:33:01;;;;;;;6.17;2.70;;;12.20;62.70;;;;;;5091036;28;20276;-53
2022/02/24 12:35:32;;;;;;;5.87;2.90;;;12.30;62.50;;;;;;5085014;28;20231;-50
2022/02/24 12:38:00;;;;;;;8.27;3.17;;;12.30;62.30;;;;;;5086556;28;20600;-49
2022/02/24 12:40:32;;;;;;;6.30;3.00;;;12.30;62.10;;;;;;5090179;28;20288;-54
2022/02/24 12:43:00;;;;;;;5.13;2.80;;;12.30;62.20;;;;;;5072039;28;20228;-49
2022/02/24 12:45:31;;;;;;;8.63;3.50;;;12.20;62.30;;;;;;5070404;28;20650;-53
2022/02/24 12:48:00;;;;;;;5.13;2.70;;;12.30;61.80;;;;;;5086152;28;20231;-49
2022/02/24 12:50:32;;;;;;;6.47;3.00;;;12.30;61.30;;;;;;5083189;28;20681;-50
2022/02/24 12:53:10;;;;;;;9.13;3.00;;;12.30;61.20;;;;;;5067412;28;20724;-50